Time;durP1;ratioP1;P1;durP2;ratioP2;P2;SDS_P1;SDS_P2;PMS_P1;PMS_P2;Temp;Humidity;BMP_temperature;BMP_pressure;BME280_temperature;BME280_humidity;BME280_pressure;Samples;Min_cycle;Max_cycle;Signal;HPM_P1;HPM_P2
2024/03/02 00:02:42;;;;;;;25.90;13.10;;;;;;;8.53;79.77;91660.84;2071481;69;20258;-78
2024/03/02 00:05:14;;;;;;;24.33;13.15;;;;;;;8.49;79.90;91655.75;2071104;69;20171;-79
2024/03/02 00:07:45;;;;;;;22.60;13.32;;;;;;;8.52;79.72;91653.75;2068183;69;20158;-78
2024/03/02 00:10:16;;;;;;;23.60;12.95;;;;;;;8.46;79.90;91656.97;2071451;69;20599;-79
2024/03/02 00:12:42;;;;;;;28.50;14.02;;;;;;;8.42;80.55;91653.25;2071202;69;20276;-78
2024/03/02 00:15:53;;;;;;;25.83;13.25;;;;;;;8.50;79.94;91656.47;2065353;69;20179;-79
2024/03/02 00:18:27;;;;;;;;;;;;;;;8.50;80.05;91650.84;2053974;69;20223;-79
2024/03/02 00:20:55;;;;;;;22.67;12.43;;;;;;;8.43;80.08;91644.22;2053968;69;20043;-79
2024/03/02 00:23:22;;;;;;;24.83;13.00;;;;;;;8.43;80.08;91649.09;2053678;70;20154;-78
2024/03/02 00:25:50;;;;;;;21.38;12.45;;;;;;;8.45;79.99;91652.00;2053833;70;20153;-78
2024/03/02 00:28:23;;;;;;;25.33;13.98;;;;;;;8.37;80.10;91641.09;2053725;69;20256;-79
2024/03/02 00:30:56;;;;;;;26.55;13.57;;;;;;;8.33;80.03;91638.78;2053855;70;20552;-79
2024/03/02 00:33:23;;;;;;;27.05;13.80;;;;;;;8.43;80.09;91646.28;2054092;70;20582;-78
2024/03/02 00:35:50;;;;;;;25.30;12.90;;;;;;;8.36;80.17;91651.59;2054488;69;20141;-79
2024/03/02 00:38:19;;;;;;;25.67;13.07;;;;;;;8.37;79.73;91647.41;2054528;70;20142;-77
2024/03/02 00:40:46;;;;;;;28.27;12.45;;;;;;;8.42;79.83;91647.63;2054399;69;20174;-77
2024/03/02 00:43:38;;;;;;;20.80;12.32;;;;;;;8.43;79.83;91651.88;2054472;69;20224;-80
2024/03/02 00:46:04;;;;;;;25.27;12.57;;;;;;;8.33;79.67;91633.16;2049123;70;20150;-78
2024/03/02 00:48:35;;;;;;;23.52;13.07;;;;;;;8.31;80.58;91635.16;2059834;69;20159;-78
2024/03/02 00:51:03;;;;;;;24.83;12.82;;;;;;;8.33;81.02;91646.47;2068833;69;20144;-78
2024/03/02 00:53:34;;;;;;;28.02;14.55;;;;;;;8.33;81.19;91652.06;2071788;69;20171;-78
2024/03/02 00:56:04;;;;;;;28.63;15.07;;;;;;;8.33;80.23;91646.47;2071996;69;20140;-78
2024/03/02 00:58:29;;;;;;;30.40;16.23;;;;;;;8.30;80.80;91637.22;2072015;69;20184;-78
2024/03/02 01:00:57;;;;;;;31.00;15.82;;;;;;;8.28;81.01;91642.72;2071801;69;20530;-78
2024/03/02 01:03:22;;;;;;;23.83;13.88;;;;;;;8.21;81.65;91626.94;2068313;69;20148;-78
2024/03/02 01:05:48;;;;;;;29.73;13.68;;;;;;;8.23;81.50;91643.84;2071817;69;20144;-79
2024/03/02 01:08:14;;;;;;;27.67;14.52;;;;;;;8.28;80.47;91645.53;2071776;69;20145;-77
2024/03/02 01:10:40;;;;;;;24.80;13.68;;;;;;;8.28;80.76;91639.19;2071784;69;20561;-78
2024/03/02 01:13:05;;;;;;;23.98;13.40;;;;;;;8.32;80.11;91650.63;2071945;69;20153;-79
2024/03/02 01:15:33;;;;;;;24.17;12.43;;;;;;;8.30;80.03;91645.63;2071551;69;20148;-78
2024/03/02 01:17:59;;;;;;;24.65;12.82;;;;;;;8.23;80.33;91646.66;2071771;69;20141;-77
2024/03/02 01:20:25;;;;;;;22.20;12.52;;;;;;;8.18;80.27;91638.66;2071942;69;20136;-78
2024/03/02 01:22:55;;;;;;;25.98;13.18;;;;;;;8.25;80.39;91646.06;2071802;69;20678;-78
2024/03/02 01:25:20;;;;;;;27.38;13.85;;;;;;;8.24;80.67;91641.78;2071688;69;20140;-78
2024/03/02 01:27:46;;;;;;;21.95;13.05;;;;;;;8.32;80.80;91642.94;2071855;69;20574;-77
2024/03/02 01:30:14;;;;;;;25.60;12.27;;;;;;;8.20;80.55;91645.13;2071648;69;20132;-79
2024/03/02 01:32:43;;;;;;;26.27;12.65;;;;;;;8.19;81.11;91642.91;2071806;69;20160;-77
2024/03/02 01:35:10;;;;;;;23.35;12.32;;;;;;;8.06;81.31;91641.53;2071813;69;20534;-76
2024/03/02 01:37:39;;;;;;;20.80;11.82;;;;;;;8.08;80.92;91645.19;2071676;69;20152;-78
2024/03/02 01:40:08;;;;;;;24.63;12.13;;;;;;;8.11;80.98;91635.56;2071799;69;20247;-77
2024/03/02 01:42:38;;;;;;;20.23;11.77;;;;;;;8.10;80.62;91633.34;2071674;69;20163;-79
2024/03/02 01:45:08;;;;;;;20.73;12.07;;;;;;;8.16;80.13;91647.72;2071638;69;20133;-79
2024/03/02 01:47:34;;;;;;;24.85;11.82;;;;;;;8.19;81.16;91642.91;2071696;69;20144;-79
2024/03/02 01:50:00;;;;;;;23.20;12.15;;;;;;;8.10;80.52;91645.28;2071877;69;20148;-78
2024/03/02 01:52:27;;;;;;;26.23;12.25;;;;;;;8.09;80.79;91641.03;2071791;69;20155;-78
2024/03/02 01:54:56;;;;;;;20.95;11.75;;;;;;;7.88;81.77;91639.25;2068425;69;20140;-78
2024/03/02 02:01:10;;;;;;;20.67;12.00;;;;;;;8.06;81.47;91635.94;2071842;69;20669;-78
2024/03/02 02:03:40;;;;;;;22.52;11.45;;;;;;;8.04;81.48;91635.84;2071549;69;20136;-79
2024/03/02 02:06:07;;;;;;;24.92;12.27;;;;;;;8.06;81.72;91649.94;2071663;69;20159;-79
2024/03/02 02:08:33;;;;;;;21.10;12.38;;;;;;;7.86;81.48;91627.19;2068380;69;20137;-76
2024/03/02 02:11:00;;;;;;;24.17;12.20;;;;;;;7.77;82.92;91636.50;2068491;69;20221;-78
2024/03/02 02:13:27;;;;;;;21.10;11.90;;;;;;;7.85;82.97;91639.75;2068375;69;20549;-77
2024/03/02 02:15:53;;;;;;;18.55;11.45;;;;;;;8.04;81.65;91635.84;2071779;69;20591;-77
2024/03/02 02:18:18;;;;;;;23.95;12.13;;;;;;;8.02;81.57;91633.66;2068368;69;20246;-77
2024/03/02 02:20:44;;;;;;;20.55;11.52;;;;;;;7.99;81.47;91632.09;2071687;69;20643;-77
2024/03/02 02:23:10;;;;;;;22.58;12.38;;;;;;;7.86;82.19;91632.78;2068417;69;20144;-78
2024/03/02 02:25:35;;;;;;;23.48;11.85;;;;;;;8.01;80.72;91623.06;2071534;69;20171;-78
2024/03/02 02:28:01;;;;;;;21.50;11.88;;;;;;;8.07;81.28;91626.94;2067959;69;20192;-78
2024/03/02 02:30:29;;;;;;;20.02;11.77;;;;;;;8.07;80.50;91621.31;2068218;69;20148;-78
2024/03/02 02:36:42;;;;;;;20.88;12.05;;;;;;;8.11;80.51;91623.63;2071511;69;20178;-77
2024/03/02 02:39:13;;;;;;;23.33;12.95;;;;;;;8.11;80.94;91623.63;2071671;69;20187;-77
2024/03/02 02:41:39;;;;;;;22.98;12.60;;;;;;;7.90;81.07;91602.91;2071560;69;20226;-76
2024/03/02 02:44:05;;;;;;;23.33;12.40;;;;;;;8.12;81.49;91620.19;2068172;69;20148;-77
2024/03/02 02:46:30;;;;;;;24.33;13.48;;;;;;;8.10;80.99;91620.06;2071750;69;20214;-78
2024/03/02 02:48:56;;;;;;;28.83;14.57;;;;;;;8.13;80.72;91618.09;2071501;69;20177;-78
2024/03/02 02:51:22;;;;;;;24.20;13.13;;;;;;;7.96;80.76;91616.53;2068432;69;20225;-78
2024/03/02 02:53:47;;;;;;;27.83;13.93;;;;;;;7.81;81.72;91614.31;2071712;69;20226;-78
2024/03/02 02:56:13;;;;;;;24.35;13.25;;;;;;;7.67;83.66;91616.38;2071523;69;20232;-76
2024/03/02 02:58:41;;;;;;;23.05;13.02;;;;;;;7.87;81.90;91615.34;2071571;69;20168;-77
2024/03/02 03:01:10;;;;;;;25.65;13.20;;;;;;;8.01;81.29;91618.19;2068351;69;20223;-77
2024/03/02 03:03:37;;;;;;;28.08;13.10;;;;;;;8.04;81.42;91619.75;2068287;69;20140;-78
2024/03/02 03:06:02;;;;;;;27.15;14.10;;;;;;;8.08;80.88;91622.78;2071254;69;20136;-78
2024/03/02 03:08:29;;;;;;;25.83;13.65;;;;;;;8.12;80.89;91619.47;2071653;69;20159;-78
2024/03/02 03:10:55;;;;;;;27.05;13.07;;;;;;;8.07;80.33;91617.78;2071493;69;20144;-78
2024/03/02 03:13:21;;;;;;;27.00;13.80;;;;;;;8.01;81.36;91618.19;2071414;69;20124;-77
2024/03/02 03:15:46;;;;;;;23.27;13.20;;;;;;;8.03;81.14;91623.91;2071673;69;20233;-77
2024/03/02 03:18:12;;;;;;;26.27;13.48;;;;;;;8.10;80.92;91625.66;2071650;69;20515;-78
2024/03/02 03:20:38;;;;;;;24.50;14.00;;;;;;;8.09;81.10;91629.09;2071604;69;20175;-79
2024/03/02 03:23:04;;;;;;;28.90;13.98;;;;;;;8.08;80.87;91622.78;2071392;69;20156;-79
2024/03/02 03:25:30;;;;;;;28.33;14.07;;;;;;;8.17;79.80;91628.81;2071669;69;20148;-78
2024/03/02 03:27:56;;;;;;;25.42;13.60;;;;;;;8.18;79.49;91630.97;2071789;69;20341;-78
2024/03/02 03:30:21;;;;;;;23.33;13.40;;;;;;;8.15;80.53;91632.97;2071564;69;20168;-77
2024/03/02 03:32:50;;;;;;;24.30;14.02;;;;;;;8.20;80.17;91635.97;2071321;69;20163;-77
2024/03/02 03:35:15;;;;;;;29.55;15.60;;;;;;;8.12;80.85;91637.00;2071529;69;20239;-77
2024/03/02 03:37:41;;;;;;;30.17;15.82;;;;;;;8.16;80.90;91639.28;2071111;69;20140;-78
2024/03/02 03:40:11;;;;;;;28.58;14.95;;;;;;;8.04;81.28;91624.63;2071232;69;20243;-78
2024/03/02 03:42:40;;;;;;;31.75;16.65;;;;;;;8.12;80.95;91636.28;2071555;69;20148;-78
2024/03/02 03:45:06;;;;;;;39.30;19.67;;;;;;;8.09;81.20;91643.13;2071473;69;20156;-78
2024/03/02 03:47:32;;;;;;;39.47;18.73;;;;;;;8.01;81.25;91632.19;2071195;69;20147;-78
2024/03/02 03:49:58;;;;;;;39.03;18.73;;;;;;;8.09;80.95;91634.72;2071404;69;20589;-78
2024/03/02 03:52:24;;;;;;;37.38;18.50;;;;;;;8.09;80.50;91643.13;2071635;69;20151;-78
2024/03/02 03:54:50;;;;;;;29.42;16.50;;;;;;;8.12;80.77;91647.50;2071586;69;20137;-78
2024/03/02 03:57:17;;;;;;;36.92;17.17;;;;;;;8.05;81.51;91642.91;2067974;69;20640;-77
2024/03/02 03:59:43;;;;;;;35.97;17.02;;;;;;;8.05;81.42;91643.63;2071393;69;20155;-78
2024/03/02 04:02:09;;;;;;;33.85;16.02;;;;;;;8.08;80.42;91648.00;2071376;69;20148;-78
2024/03/02 04:04:35;;;;;;;30.80;16.60;;;;;;;7.90;81.45;91635.81;2071403;69;20140;-78
2024/03/02 04:07:01;;;;;;;32.97;16.85;;;;;;;8.06;81.41;91652.75;2068322;69;20148;-78
2024/03/02 04:09:27;;;;;;;30.40;17.00;;;;;;;8.09;81.54;91649.44;2065720;69;20147;-79
2024/03/02 04:11:53;;;;;;;31.25;15.65;;;;;;;8.14;80.04;91653.19;2071861;69;20214;-79
2024/03/02 04:14:18;;;;;;;31.63;16.15;;;;;;;8.15;80.17;91652.59;2071750;69;20191;-78
2024/03/02 04:16:46;;;;;;;29.05;16.45;;;;;;;8.13;81.14;91652.47;2071774;69;20153;-78
2024/03/02 04:19:12;;;;;;;30.58;17.88;;;;;;;8.11;80.91;91662.84;2072042;69;20152;-78
2024/03/02 04:21:37;;;;;;;33.47;17.25;;;;;;;7.99;81.47;91656.59;2068604;69;20132;-78
2024/03/02 04:24:03;;;;;;;32.28;16.60;;;;;;;8.03;81.19;91662.41;2068592;69;20132;-78
2024/03/02 04:26:30;;;;;;;33.63;16.73;;;;;;;8.06;81.07;91664.72;2071860;69;20168;-78
2024/03/02 04:28:56;;;;;;;30.98;15.85;;;;;;;8.10;80.71;91658.59;2071604;69;20611;-79
2024/03/02 04:31:21;;;;;;;30.55;16.65;;;;;;;8.10;81.16;91662.09;2071837;69;20163;-78
2024/03/02 04:33:47;;;;;;;34.00;17.25;;;;;;;8.08;81.13;91655.69;2065711;69;20201;-78
2024/03/02 04:36:13;;;;;;;35.05;17.63;;;;;;;8.05;81.67;91665.31;2071931;69;20207;-78
2024/03/02 04:38:39;;;;;;;33.00;17.45;;;;;;;8.06;81.06;91661.91;2071863;69;20578;-78
2024/03/02 04:41:07;;;;;;;38.42;18.10;;;;;;;8.09;81.08;91665.53;2068530;69;20607;-78
2024/03/02 04:43:33;;;;;;;36.78;19.13;;;;;;;7.99;81.88;91667.81;2071860;69;20147;-78
2024/03/02 04:46:00;;;;;;;43.10;20.52;;;;;;;7.96;81.47;91663.44;2071723;69;20160;-78
2024/03/02 04:48:25;;;;;;;45.85;20.73;;;;;;;7.99;81.46;91665.00;2071593;69;20140;-78
2024/03/02 04:50:51;;;;;;;40.63;20.17;;;;;;;8.03;81.21;91668.75;2071954;69;20147;-78
2024/03/02 04:53:17;;;;;;;40.67;20.75;;;;;;;7.96;81.85;91663.44;2072153;69;20244;-78
2024/03/02 04:59:30;;;;;;;38.80;21.10;;;;;;;7.76;82.67;91674.28;2072009;69;20271;-78
2024/03/02 05:01:56;;;;;;;41.08;20.38;;;;;;;7.88;81.96;91681.28;2071847;69;20155;-79
2024/03/02 05:04:22;;;;;;;44.72;21.98;;;;;;;7.47;83.53;91681.13;2068486;69;20136;-78
2024/03/02 05:06:52;;;;;;;44.55;22.05;;;;;;;7.76;83.02;91674.28;2071679;69;20604;-79
2024/03/02 05:09:18;;;;;;;40.63;21.95;;;;;;;7.90;82.39;91681.38;2071899;69;20144;-77
2024/03/02 05:14:09;;;;;;;44.35;23.40;;;;;;;7.95;81.07;91673.91;2071918;69;20168;-78
2024/03/02 05:16:36;;;;;;;53.92;29.88;;;;;;;7.96;81.94;91683.06;2071579;69;20140;-78
2024/03/02 05:19:02;;;;;;;51.28;25.33;;;;;;;7.99;81.78;91684.63;2071580;69;20709;-78
2024/03/02 05:21:28;;;;;;;41.83;21.77;;;;;;;7.96;82.06;91677.44;2068521;69;20223;-78
2024/03/02 05:23:55;;;;;;;40.95;22.00;;;;;;;7.99;81.35;91685.34;2071870;69;20167;-78
2024/03/02 05:26:20;;;;;;;37.65;20.10;;;;;;;7.94;82.04;91680.16;2068662;69;20218;-79
2024/03/02 05:28:46;;;;;;;36.83;20.38;;;;;;;7.92;82.11;91689.16;2071859;69;20157;-78
2024/03/02 05:31:15;;;;;;;36.90;20.30;;;;;;;7.92;81.79;91683.56;2071820;69;20179;-76
2024/03/02 05:33:40;;;;;;;35.47;19.58;;;;;;;7.93;81.63;91681.50;2068470;69;20205;-78
2024/03/02 05:36:06;;;;;;;36.17;19.42;;;;;;;7.94;81.73;91688.56;2071567;69;20148;-78
2024/03/02 05:38:34;;;;;;;38.17;19.75;;;;;;;7.94;82.14;91692.09;2071850;69;20142;-79
2024/03/02 05:41:00;;;;;;;36.00;18.77;;;;;;;7.93;81.43;91696.25;2071883;69;20152;-78
2024/03/02 05:43:25;;;;;;;34.28;17.95;;;;;;;7.90;80.57;91700.28;2071991;69;20140;-77
2024/03/02 05:45:51;;;;;;;35.90;19.80;;;;;;;7.88;80.82;91697.38;2071872;69;20144;-77
2024/03/02 05:48:17;;;;;;;42.03;23.35;;;;;;;7.95;81.00;91690.00;2071730;69;20148;-78
2024/03/02 05:50:42;;;;;;;44.42;22.48;;;;;;;7.89;81.44;91693.22;2071859;69;20128;-78
2024/03/02 05:53:08;;;;;;;45.15;23.00;;;;;;;7.90;81.68;91692.59;2071682;69;20132;-77
2024/03/02 05:55:34;;;;;;;45.83;22.85;;;;;;;7.90;81.61;91686.25;2071782;69;20155;-77
2024/03/02 05:58:22;;;;;;;45.97;24.40;;;;;;;7.79;81.58;91678.63;2065613;69;20210;-78
2024/03/02 06:00:48;;;;;;;43.70;23.80;;;;;;;7.86;81.64;91688.84;2068571;69;20144;-77
2024/03/02 06:03:14;;;;;;;45.80;23.92;;;;;;;7.88;81.66;91695.28;2068489;69;20229;-78
2024/03/02 06:05:40;;;;;;;43.92;22.35;;;;;;;7.80;82.29;91691.31;2072015;69;20164;-78
2024/03/02 06:11:53;;;;;;;41.13;20.38;;;;;;;7.85;82.23;91698.59;2071964;69;20165;-78
2024/03/02 06:14:20;;;;;;;38.03;20.80;;;;;;;7.84;82.05;91689.47;2068490;69;20179;-78
2024/03/02 06:16:45;;;;;;;40.22;20.52;;;;;;;7.89;81.97;91688.34;2071433;69;20144;-79
2024/03/02 06:19:11;;;;;;;37.28;19.45;;;;;;;7.96;82.42;91699.88;2071778;69;20163;-78
2024/03/02 06:21:36;;;;;;;40.58;20.38;;;;;;;7.97;81.62;91692.91;2071239;69;20151;-77
2024/03/02 06:24:02;;;;;;;39.25;20.10;;;;;;;8.00;82.18;91698.00;2071527;69;20132;-78
2024/03/02 06:26:29;;;;;;;36.75;19.30;;;;;;;8.04;81.07;91703.13;2071121;69;20128;-78
2024/03/02 06:28:55;;;;;;;41.22;20.45;;;;;;;8.01;82.02;91699.47;2070665;69;20168;-78
2024/03/02 06:31:20;;;;;;;42.55;21.08;;;;;;;8.09;81.28;91699.19;2070857;69;20206;-79
2024/03/02 06:33:46;;;;;;;41.40;20.98;;;;;;;7.88;82.78;91698.09;2070665;69;20143;-78
2024/03/02 06:36:11;;;;;;;47.58;22.20;;;;;;;7.70;82.79;91708.31;2071026;69;20153;-79
2024/03/02 06:38:37;;;;;;;45.55;21.65;;;;;;;7.37;85.29;91700.88;2067632;69;20188;-79
2024/03/02 06:41:03;;;;;;;43.20;20.85;;;;;;;7.56;85.72;91702.66;2071177;69;20180;-78
2024/03/02 06:43:28;;;;;;;43.60;21.13;;;;;;;7.87;84.12;91710.63;2071628;69;20197;-78
2024/03/02 06:45:54;;;;;;;41.17;20.73;;;;;;;7.80;84.38;91706.06;2071788;69;20600;-77
2024/03/02 06:48:20;;;;;;;39.53;19.60;;;;;;;7.85;84.06;91701.41;2071416;69;20140;-78
2024/03/02 06:50:50;;;;;;;40.80;19.85;;;;;;;8.21;82.85;91707.53;2068468;69;20167;-78
2024/03/02 06:57:03;;;;;;;44.97;21.75;;;;;;;8.54;81.30;91707.16;2071886;69;20189;-78
2024/03/02 06:59:29;;;;;;;41.80;21.83;;;;;;;8.53;80.95;91705.72;2068503;69;20176;-78
2024/03/02 07:05:41;;;;;;;40.70;21.42;;;;;;;8.74;79.71;91713.09;2071815;69;20127;-78
2024/03/02 07:08:07;;;;;;;38.97;20.08;;;;;;;8.54;80.01;91709.97;2068432;69;20136;-77
2024/03/02 07:10:33;;;;;;;48.17;22.73;;;;;;;8.64;80.31;91719.63;2071802;69;20500;-78
2024/03/02 07:12:59;;;;;;;43.10;21.83;;;;;;;8.75;79.99;91722.97;2071453;69;20177;-77
2024/03/02 07:17:52;;;;;;;42.92;22.08;;;;;;;8.62;80.79;91724.44;2068389;69;20675;-77
2024/03/02 07:20:18;;;;;;;38.67;21.15;;;;;;;8.73;79.53;91729.22;2071862;69;20141;-78
2024/03/02 07:22:45;;;;;;;44.33;21.83;;;;;;;8.64;79.72;91727.34;2071865;69;20204;-78
2024/03/02 07:25:11;;;;;;;36.63;21.38;;;;;;;8.82;79.13;91725.47;2071804;69;20158;-78
2024/03/02 07:27:36;;;;;;;38.38;20.35;;;;;;;8.84;79.07;91727.63;2071219;69;20160;-78
2024/03/02 07:30:03;;;;;;;36.78;20.13;;;;;;;8.97;79.20;91729.72;2071524;69;20179;-78
2024/03/02 07:32:29;;;;;;;37.25;20.00;;;;;;;8.95;78.80;91721.22;2071640;69;20794;-78
2024/03/02 07:34:55;;;;;;;36.05;20.75;;;;;;;8.86;79.03;91722.16;2071551;69;20148;-78
2024/03/02 07:37:22;;;;;;;41.17;22.98;;;;;;;8.74;80.28;91725.03;2071624;69;20213;-78
2024/03/02 07:39:48;;;;;;;43.05;21.65;;;;;;;8.91;79.37;91723.81;2068408;69;20227;-78
2024/03/02 07:42:14;;;;;;;37.03;21.45;;;;;;;9.05;78.70;91718.91;2068114;69;20599;-78
2024/03/02 07:44:40;;;;;;;42.72;21.50;;;;;;;8.76;79.79;91718.81;2068032;69;20147;-78
2024/03/02 07:47:06;;;;;;;36.70;19.92;;;;;;;8.70;80.40;91704.47;2067504;69;20128;-79
2024/03/02 07:49:32;;;;;;;34.55;19.15;;;;;;;8.89;79.36;91712.50;2071098;69;20159;-79
2024/03/02 07:51:58;;;;;;;37.33;19.27;;;;;;;9.02;79.40;91711.72;2071601;69;20140;-78
2024/03/02 07:54:24;;;;;;;36.00;19.05;;;;;;;9.10;78.93;91720.56;2071697;69;20179;-78
2024/03/02 07:56:49;;;;;;;34.83;20.15;;;;;;;9.32;78.75;91717.44;2071657;69;20654;-78
2024/03/02 07:59:15;;;;;;;36.35;19.83;;;;;;;9.45;78.57;91722.28;2071510;69;20136;-79
2024/03/02 08:01:41;;;;;;;36.95;21.23;;;;;;;9.25;77.77;91724.81;2071402;69;20529;-78
2024/03/02 08:04:07;;;;;;;40.30;21.52;;;;;;;8.98;79.24;91724.84;2065447;69;20136;-78
2024/03/02 08:06:33;;;;;;;37.53;20.95;;;;;;;9.29;77.99;91724.28;2071586;69;20245;-78
2024/03/02 08:09:00;;;;;;;39.15;20.95;;;;;;;9.37;77.82;91724.69;2071510;69;20165;-76
2024/03/02 08:11:27;;;;;;;38.72;20.67;;;;;;;9.46;77.44;91731.44;2071263;69;20140;-78
2024/03/02 08:13:54;;;;;;;37.78;20.48;;;;;;;9.70;76.71;91721.38;2068302;69;20156;-77
2024/03/02 08:16:23;;;;;;;36.20;21.05;;;;;;;9.58;76.49;91732.78;2068136;69;20511;-77
2024/03/02 08:18:49;;;;;;;43.92;25.05;;;;;;;9.56;77.28;91729.13;2068021;69;20581;-76
2024/03/02 08:21:15;;;;;;;38.50;21.25;;;;;;;9.48;76.60;91726.63;2071417;69;20178;-77
2024/03/02 08:23:42;;;;;;;32.90;19.42;;;;;;;9.05;77.87;91724.53;2071436;69;20202;-77
2024/03/02 08:26:09;;;;;;;35.38;18.90;;;;;;;9.47;76.74;91722.38;2071359;69;20221;-77
2024/03/02 08:28:34;;;;;;;31.98;18.27;;;;;;;9.88;75.44;91718.72;2068013;69;20128;-77
2024/03/02 08:31:01;;;;;;;33.25;17.70;;;;;;;10.06;74.18;91724.47;2071250;69;20179;-76
2024/03/02 08:33:26;;;;;;;35.17;18.42;;;;;;;10.15;73.49;91724.22;2071391;69;20603;-77
2024/03/02 08:35:52;;;;;;;32.40;18.10;;;;;;;10.33;73.57;91723.63;2068139;69;20140;-76
2024/03/02 08:38:18;;;;;;;30.55;17.55;;;;;;;10.27;73.97;91715.66;2068059;69;20531;-76
2024/03/02 08:40:44;;;;;;;29.10;17.95;;;;;;;10.54;73.83;91730.94;2071492;69;20540;-75
2024/03/02 08:43:10;;;;;;;31.05;18.45;;;;;;;10.28;73.62;91727.63;2071508;69;20151;-77
2024/03/02 08:45:36;;;;;;;35.28;17.92;;;;;;;9.88;74.47;91727.16;2071456;69;20148;-76
2024/03/02 08:48:02;;;;;;;28.30;16.42;;;;;;;10.05;73.54;91726.56;2071394;69;20140;-76
2024/03/02 08:50:27;;;;;;;32.38;17.50;;;;;;;10.29;73.22;91721.34;2071281;69;20178;-77
2024/03/02 08:52:53;;;;;;;31.15;17.05;;;;;;;10.62;72.59;91720.75;2071618;69;20137;-77
2024/03/02 08:55:18;;;;;;;31.35;17.65;;;;;;;10.75;71.71;91719.19;2071892;69;20596;-76
2024/03/02 08:57:44;;;;;;;30.58;17.10;;;;;;;10.93;71.42;91719.28;2071813;69;20531;-75
2024/03/02 09:00:10;;;;;;;29.90;16.95;;;;;;;10.82;71.75;91725.84;2071769;69;20167;-76
2024/03/02 09:02:36;;;;;;;28.58;16.27;;;;;;;11.19;70.31;91722.50;2071603;69;20144;-76
2024/03/02 09:05:02;;;;;;;24.98;15.32;;;;;;;10.56;71.36;91709.22;2068406;69;20151;-75
2024/03/02 09:07:27;;;;;;;26.85;16.05;;;;;;;11.23;70.04;91717.06;2068348;69;20254;-77
2024/03/02 09:09:53;;;;;;;25.88;16.10;;;;;;;11.34;69.74;91716.09;2072016;69;20157;-75
2024/03/02 09:12:19;;;;;;;23.10;14.15;;;;;;;11.11;69.87;91717.25;2071610;69;20152;-75
2024/03/02 09:14:46;;;;;;;25.58;15.18;;;;;;;11.47;69.79;91722.97;2072081;69;20515;-75
2024/03/02 09:20:59;;;;;;;22.00;12.35;;;;;;;11.94;67.39;91717.19;2072024;69;20213;-75
2024/03/02 09:23:25;;;;;;;23.75;13.43;;;;;;;11.77;67.59;91711.50;2072067;69;20195;-75
2024/03/02 09:25:52;;;;;;;21.90;13.20;;;;;;;12.11;67.60;91709.38;2071723;69;20186;-76
2024/03/02 09:28:18;;;;;;;19.27;12.35;;;;;;;12.21;67.24;91718.22;2071477;69;20228;-74
2024/03/02 09:30:44;;;;;;;26.33;15.60;;;;;;;11.52;68.56;91706.97;2071965;69;20140;-75
2024/03/02 09:33:09;;;;;;;25.83;14.52;;;;;;;11.90;69.31;91708.56;2071796;69;20225;-74
2024/03/02 09:35:35;;;;;;;23.85;13.80;;;;;;;12.71;66.92;91710.22;2071864;69;20232;-76
2024/03/02 09:38:03;;;;;;;24.75;14.00;;;;;;;13.69;64.54;91697.44;2071592;69;20564;-75
2024/03/02 09:40:29;;;;;;;31.35;16.90;;;;;;;13.87;64.25;91711.47;2068380;69;20710;-76
2024/03/02 09:46:43;;;;;;;18.98;11.20;;;;;;;15.34;61.18;91701.72;2071827;69;20222;-75
2024/03/02 09:49:10;;;;;;;22.80;10.90;;;;;;;15.56;59.27;91695.19;2071964;69;20144;-75
2024/03/02 09:51:37;;;;;;;16.02;10.43;;;;;;;15.38;57.05;91693.31;2072616;69;20159;-75
2024/03/02 09:54:03;;;;;;;17.33;10.60;;;;;;;16.01;57.05;91694.97;2072196;69;20210;-76
2024/03/02 09:56:28;;;;;;;14.05;10.05;;;;;;;15.23;57.05;91697.88;2068545;69;20164;-74
2024/03/02 10:02:42;;;;;;;12.52;7.13;;;;;;;15.91;54.92;91689.06;2071583;69;20127;-75
2024/03/02 10:05:09;;;;;;;11.10;7.38;;;;;;;16.07;54.86;91685.88;2068373;69;20152;-74
2024/03/02 10:07:34;;;;;;;12.13;8.10;;;;;;;16.06;54.87;91690.13;2071769;69;20151;-77
2024/03/02 10:10:13;;;;;;;9.95;6.80;;;;;;;16.22;53.80;91681.28;2071767;69;20240;-77
2024/03/02 10:12:38;;;;;;;9.85;6.55;;;;;;;16.41;53.12;91688.13;2072018;69;20179;-76
2024/03/02 10:15:05;;;;;;;9.88;7.53;;;;;;;16.07;52.88;91673.81;2071815;69;20231;-77
2024/03/02 10:17:33;;;;;;;9.70;6.63;;;;;;;15.68;52.65;91664.34;2071775;69;20306;-77
2024/03/02 10:19:59;;;;;;;6.72;4.60;;;;;;;14.72;53.42;91662.44;2071823;69;20144;-76
2024/03/02 10:22:26;;;;;;;4.20;3.13;;;;;;;15.97;52.33;91671.44;2071614;69;20151;-76
2024/03/02 10:28:47;;;;;;;8.95;6.32;;;;;;;16.77;50.00;91669.06;2071777;69;20372;-76
2024/03/02 10:31:13;;;;;;;6.20;4.53;;;;;;;17.86;49.76;91654.09;2071537;69;20188;-77
2024/03/02 10:33:39;;;;;;;5.70;3.70;;;;;;;17.66;46.55;91660.84;2071640;69;20215;-77
2024/03/02 10:36:05;;;;;;;4.20;2.95;;;;;;;17.89;46.76;91658.44;2068421;69;20194;-75
2024/03/02 10:38:31;;;;;;;5.63;3.83;;;;;;;18.98;47.59;91650.13;2071839;69;20172;-75
2024/03/02 10:40:59;;;;;;;9.80;4.47;;;;;;;20.50;45.46;91648.16;2072050;69;20137;-77
2024/03/02 10:43:26;;;;;;;5.43;2.80;;;;;;;21.08;43.07;91646.38;2071894;69;20172;-77
2024/03/02 10:45:52;;;;;;;4.07;2.53;;;;;;;19.35;43.41;91650.56;2071930;69;20172;-77
2024/03/02 10:48:19;;;;;;;5.40;3.90;;;;;;;19.33;42.86;91651.25;2068309;69;20148;-77
2024/03/02 10:50:45;;;;;;;3.30;2.78;;;;;;;18.90;44.92;91650.72;2071793;69;20151;-77
2024/03/02 10:53:10;;;;;;;6.07;4.80;;;;;;;20.23;44.43;91643.63;2071756;69;20160;-78
2024/03/02 10:55:36;;;;;;;6.57;5.07;;;;;;;21.31;43.25;91647.94;2071779;69;20188;-77
2024/03/02 10:58:07;;;;;;;5.95;4.57;;;;;;;21.95;41.03;91640.25;2071729;69;20151;-77
2024/03/02 11:00:34;;;;;;;7.72;4.78;;;;;;;23.92;38.85;91638.53;2068421;69;20140;-77
2024/03/02 11:03:11;;;;;;;6.43;4.75;;;;;;;23.69;38.60;91637.94;2071301;69;20152;-79
2024/03/02 11:09:27;;;;;;;6.00;3.40;;;;;;;24.11;39.42;91633.38;2071730;69;20679;-78
2024/03/02 11:12:03;;;;;;;5.75;3.97;;;;;;;25.41;37.36;91627.97;2068385;69;20650;-77
2024/03/02 11:14:32;;;;;;;8.82;7.80;;;;;;;24.36;36.68;91616.66;2071764;69;20148;-78
2024/03/02 11:17:01;;;;;;;4.28;3.25;;;;;;;23.68;38.45;91609.91;2071733;69;20634;-77
2024/03/02 11:19:27;;;;;;;5.28;2.90;;;;;;;26.50;36.23;91610.69;2068522;69;20145;-80
2024/03/02 11:21:53;;;;;;;2.97;2.60;;;;;;;28.10;34.65;91609.19;2071720;69;20217;-77
2024/03/02 11:24:27;;;;;;;7.75;5.30;;;;;;;25.49;34.09;91590.41;2071635;69;20155;-79
2024/03/02 11:26:53;;;;;;;2.60;2.17;;;;;;;26.55;33.74;91595.44;2068344;69;20256;-78
2024/03/02 11:29:40;;;;;;;2.40;1.38;;;;;;;28.63;30.19;91597.09;2068317;69;20167;-78
2024/03/02 11:32:25;;;;;;;3.10;1.90;;;;;;;30.28;30.21;91600.69;2067973;69;20615;-81
2024/03/02 11:34:51;;;;;;;1.83;1.67;;;;;;;28.09;29.56;91584.63;2071662;69;20639;-80
2024/03/02 11:37:19;;;;;;;2.20;2.00;;;;;;;26.48;31.29;91578.97;2071563;69;20192;-76
2024/03/02 11:39:48;;;;;;;6.45;4.65;;;;;;;30.03;29.64;91574.56;2071981;69;20167;-76
2024/03/02 11:42:15;;;;;;;4.85;3.17;;;;;;;28.72;30.48;91574.47;2070855;69;20602;-79
2024/03/02 11:44:46;;;;;;;2.90;1.92;;;;;;;31.34;28.51;91571.16;2072247;69;20211;-79
2024/03/02 11:47:20;;;;;;;2.90;1.60;;;;;;;34.55;25.17;91569.88;2068200;69;20163;-80
2024/03/02 11:49:51;;;;;;;4.50;1.42;;;;;;;30.86;26.76;91556.78;2071653;69;20141;-79
2024/03/02 11:52:18;;;;;;;2.80;1.52;;;;;;;31.90;26.36;91554.69;2068385;69;20167;-79
2024/03/02 11:54:46;;;;;;;1.50;1.35;;;;;;;32.32;28.24;91550.13;2071674;69;20245;-79
2024/03/02 11:57:17;;;;;;;3.03;1.20;;;;;;;34.71;24.12;91545.00;2071428;69;20205;-78
2024/03/02 11:59:43;;;;;;;1.00;0.95;;;;;;;33.30;23.85;91549.09;2071540;69;20156;-81
2024/03/02 12:02:37;;;;;;;2.70;0.90;;;;;;;35.27;23.26;91544.44;2071791;69;20152;-79
2024/03/02 12:05:04;;;;;;;2.17;0.85;;;;;;;30.14;25.81;91522.78;2071523;69;20152;-79
2024/03/02 12:07:30;;;;;;;2.80;1.00;;;;;;;33.63;25.92;91530.94;2071455;69;20140;-79
2024/03/02 12:13:54;;;;;;;0.65;0.65;;;;;;;38.41;20.59;91522.50;2072232;69;20600;-82
2024/03/02 12:16:24;;;;;;;1.08;0.80;;;;;;;41.46;19.77;91515.59;2072238;69;20612;-82
2024/03/02 12:18:50;;;;;;;1.25;0.73;;;;;;;38.02;19.53;91522.63;2071535;69;20171;-80